Time;durP1;ratioP1;P1;durP2;ratioP2;P2;SDS_P1;SDS_P2;PMS_P1;PMS_P2;Temp;Humidity;BMP_temperature;BMP_pressure;BME280_temperature;BME280_humidity;BME280_pressure;Samples;Min_cycle;Max_cycle;Signal;HPM_P1;HPM_P2
2023/09/26 00:00:23;;;;;;;58.17;52.47;;;20.40;99.90;;;;;;5070601;28;20040;-62
2023/09/26 00:02:50;;;;;;;58.88;53.15;;;19.10;99.90;;;;;;5071268;28;20047;-62
2023/09/26 00:05:18;;;;;;;61.00;54.85;;;19.80;99.90;;;;;;5070780;28;20071;-61
2023/09/26 00:07:44;;;;;;;58.15;52.47;;;19.80;99.90;;;;;;5070726;28;20564;-61
2023/09/26 00:10:13;;;;;;;65.60;58.85;;;20.00;99.90;;;;;;5070272;28;20124;-62
2023/09/26 00:12:39;;;;;;;66.05;59.30;;;19.80;99.90;;;;;;5070491;28;20040;-62
2023/09/26 00:15:06;;;;;;;60.58;54.00;;;20.20;99.90;;;;;;5070377;28;20132;-61
2023/09/26 00:17:32;;;;;;;60.17;53.67;;;19.60;99.90;;;;;;5052605;28;20058;-62
2023/09/26 00:19:58;;;;;;;60.00;54.58;;;20.10;99.90;;;;;;5070532;28;20123;-62
2023/09/26 00:22:24;;;;;;;57.88;52.10;;;19.20;99.90;;;;;;5070458;28;20037;-62
2023/09/26 00:24:51;;;;;;;60.10;53.85;;;20.60;99.90;;;;;;5070225;28;20487;-61
2023/09/26 00:27:17;;;;;;;61.25;55.15;;;20.10;99.90;;;;;;5070190;28;20052;-61
2023/09/26 00:29:44;;;;;;;76.75;50.47;;;19.20;99.90;;;;;;5069350;28;20139;-61
2023/09/26 00:32:10;;;;;;;62.15;50.88;;;20.40;99.90;;;;;;5070261;28;20049;-61
2023/09/26 00:34:36;;;;;;;58.92;53.10;;;20.40;99.90;;;;;;5070354;28;20059;-61
2023/09/26 00:37:01;;;;;;;57.67;51.97;;;19.70;99.90;;;;;;5068571;28;20037;-61
2023/09/26 00:39:27;;;;;;;64.68;57.47;;;20.00;99.90;;;;;;5070153;28;20043;-61
2023/09/26 00:41:53;;;;;;;66.72;58.90;;;19.90;99.90;;;;;;5070430;28;20802;-62
2023/09/26 00:44:18;;;;;;;62.47;55.92;;;19.90;99.90;;;;;;5070425;28;20375;-61
2023/09/26 00:46:45;;;;;;;62.40;55.85;;;20.20;99.90;;;;;;5070112;28;20048;-61
2023/09/26 00:49:11;;;;;;;67.53;60.22;;;20.50;99.90;;;;;;5069830;28;20444;-62
2023/09/26 00:51:38;;;;;;;67.68;60.85;;;19.80;99.90;;;;;;5070109;28;20370;-61
2023/09/26 00:54:05;;;;;;;67.65;60.53;;;20.50;99.90;;;;;;5069899;28;20036;-61
2023/09/26 00:56:31;;;;;;;70.85;63.00;;;19.70;99.90;;;;;;5069488;28;20421;-61
2023/09/26 00:58:58;;;;;;;69.47;62.00;;;20.90;99.90;;;;;;5069933;28;20045;-61
2023/09/26 01:01:29;;;;;;;65.28;58.03;;;19.70;99.90;;;;;;5069663;28;20044;-61
2023/09/26 01:03:55;;;;;;;63.13;56.35;;;20.30;99.90;;;;;;5068848;28;20456;-61
2023/09/26 01:06:21;;;;;;;66.65;59.50;;;19.90;99.90;;;;;;5069645;28;20078;-61
2023/09/26 01:08:47;;;;;;;67.63;60.55;;;19.40;99.90;;;;;;5069608;28;20127;-61
2023/09/26 01:11:13;;;;;;;67.85;60.85;;;20.30;99.90;;;;;;5069031;28;20036;-61
2023/09/26 01:13:39;;;;;;;71.55;62.72;;;19.30;99.90;;;;;;5069617;28;20040;-62
2023/09/26 01:16:15;;;;;;;70.13;62.75;;;19.50;99.90;;;;;;5069151;28;20040;-61
2023/09/26 01:18:41;;;;;;;70.78;63.20;;;19.30;99.90;;;;;;5069618;28;20044;-61
2023/09/26 01:21:07;;;;;;;73.30;66.20;;;19.40;99.90;;;;;;5069598;28;20529;-61
2023/09/26 01:23:36;;;;;;;72.38;65.03;;;19.40;99.90;;;;;;5069420;28;20127;-62
2023/09/26 01:26:02;;;;;;;69.70;62.70;;;19.40;99.90;;;;;;5069014;28;20040;-61
2023/09/26 01:28:27;;;;;;;72.15;64.35;;;20.70;99.90;;;;;;5069473;28;20051;-61
2023/09/26 01:30:53;;;;;;;69.65;62.17;;;20.40;99.90;;;;;;5069292;28;20427;-62
2023/09/26 01:33:21;;;;;;;71.88;59.55;;;19.80;99.90;;;;;;5069318;28;20522;-61
2023/09/26 01:35:48;;;;;;;59.38;53.65;;;20.80;99.90;;;;;;5068960;28;20418;-61
2023/09/26 01:38:14;;;;;;;56.67;51.15;;;19.50;99.90;;;;;;5068810;28;20076;-62
2023/09/26 01:40:43;;;;;;;56.50;50.90;;;20.40;99.90;;;;;;5069073;28;20044;-62
2023/09/26 01:43:09;;;;;;;61.08;55.15;;;20.40;99.90;;;;;;5068723;28;20170;-62
2023/09/26 01:45:34;;;;;;;60.08;54.20;;;19.30;99.90;;;;;;5068407;28;20123;-61
2023/09/26 01:48:00;;;;;;;57.88;52.17;;;19.00;99.90;;;;;;5068814;28;20059;-62
2023/09/26 01:50:26;;;;;;;65.72;58.90;;;20.20;99.90;;;;;;5068495;28;20055;-61
2023/09/26 01:52:52;;;;;;;63.92;56.80;;;19.00;99.90;;;;;;5068506;28;20506;-62
2023/09/26 01:55:22;;;;;;;64.43;58.03;;;18.80;99.90;;;;;;5068197;28;20047;-61
2023/09/26 01:57:49;;;;;;;63.97;57.67;;;20.10;99.90;;;;;;5068555;28;20040;-61
2023/09/26 02:00:15;;;;;;;63.05;56.28;;;20.10;99.90;;;;;;5068414;28;20036;-61
2023/09/26 02:02:43;;;;;;;65.70;58.25;;;20.20;99.90;;;;;;5068430;28;20040;-61
2023/09/26 02:05:10;;;;;;;61.33;55.88;;;18.90;99.90;;;;;;5068407;28;20089;-61
2023/09/26 02:07:35;;;;;;;57.70;52.35;;;18.90;99.90;;;;;;5068545;28;20155;-62
2023/09/26 02:10:03;;;;;;;57.80;52.10;;;20.00;99.90;;;;;;5068532;28;20222;-62
2023/09/26 02:12:33;;;;;;;57.53;52.10;;;18.70;99.90;;;;;;5068499;28;20055;-62
2023/09/26 02:15:01;;;;;;;60.67;54.95;;;18.70;99.90;;;;;;5068293;28;20044;-61
2023/09/26 02:17:27;;;;;;;60.28;54.47;;;19.80;99.90;;;;;;5068786;28;20044;-62
2023/09/26 02:19:52;;;;;;;63.35;57.38;;;18.50;99.90;;;;;;5068261;28;20085;-62
2023/09/26 02:22:18;;;;;;;58.22;53.03;;;18.50;99.90;;;;;;5066738;28;20448;-61
2023/09/26 02:24:44;;;;;;;62.40;56.65;;;19.30;99.90;;;;;;5067981;28;20036;-61
2023/09/26 02:27:10;;;;;;;63.65;57.55;;;18.90;99.90;;;;;;5067807;28;20174;-62
2023/09/26 02:29:35;;;;;;;61.83;56.03;;;19.90;99.90;;;;;;5066426;28;20044;-61
2023/09/26 02:32:01;;;;;;;59.08;53.65;;;20.00;99.90;;;;;;5067902;28;20055;-61
2023/09/26 02:34:26;;;;;;;61.40;55.97;;;20.00;99.90;;;;;;5067854;28;20075;-61
2023/09/26 02:36:52;;;;;;;64.82;58.88;;;18.60;99.90;;;;;;5067554;28;20045;-62
2023/09/26 02:39:17;;;;;;;60.15;54.22;;;18.50;99.90;;;;;;5067902;28;20522;-61
2023/09/26 02:41:43;;;;;;;62.67;56.85;;;20.10;99.90;;;;;;5067665;28;20045;-61
2023/09/26 02:44:09;;;;;;;63.25;57.78;;;19.70;99.90;;;;;;5067678;28;20037;-62
2023/09/26 02:46:34;;;;;;;59.58;54.50;;;20.20;99.90;;;;;;5067567;28;20101;-62
2023/09/26 02:49:00;;;;;;;61.05;55.55;;;20.20;99.90;;;;;;5067690;28;20513;-62
2023/09/26 02:51:26;;;;;;;61.38;55.53;;;20.20;99.90;;;;;;5067765;28;20510;-62
2023/09/26 02:53:52;;;;;;;60.08;54.85;;;20.00;99.90;;;;;;5068085;28;20119;-61
2023/09/26 02:56:18;;;;;;;62.53;57.22;;;20.00;99.90;;;;;;5067665;28;20158;-63
2023/09/26 02:58:43;;;;;;;62.03;56.67;;;18.70;99.90;;;;;;5067761;28;20076;-61
2023/09/26 03:01:18;;;;;;;60.13;54.85;;;18.80;99.90;;;;;;5067520;28;20063;-61
2023/09/26 03:03:44;;;;;;;65.15;59.20;;;19.10;99.90;;;;;;5067841;28;20079;-61
2023/09/26 03:06:09;;;;;;;59.78;54.63;;;20.60;99.90;;;;;;5067482;28;20138;-62
2023/09/26 03:08:35;;;;;;;56.33;51.63;;;19.00;99.90;;;;;;5067772;28;20051;-61
2023/09/26 03:11:01;;;;;;;57.85;52.65;;;19.80;99.90;;;;;;5067117;28;20067;-62
2023/09/26 03:13:33;;;;;;;60.08;54.67;;;20.00;99.90;;;;;;5067666;28;20082;-61
2023/09/26 03:15:59;;;;;;;55.33;50.60;;;19.90;99.90;;;;;;5067361;28;20045;-62
2023/09/26 03:18:26;;;;;;;55.40;50.20;;;20.50;99.90;;;;;;5067487;28;20123;-61
2023/09/26 03:20:52;;;;;;;57.65;52.60;;;20.60;99.90;;;;;;5065909;28;20041;-62
2023/09/26 03:23:20;;;;;;;56.92;51.70;;;19.50;99.90;;;;;;5067807;28;20387;-62
2023/09/26 03:25:45;;;;;;;56.65;51.78;;;19.40;99.90;;;;;;5067380;28;20104;-62
2023/09/26 03:28:11;;;;;;;55.38;50.67;;;19.10;99.90;;;;;;5071322;28;20195;-62
2023/09/26 03:30:39;;;;;;;55.88;50.67;;;20.00;99.90;;;;;;5071380;28;20089;-61
2023/09/26 03:33:05;;;;;;;55.15;50.17;;;20.10;99.90;;;;;;5071495;28;20147;-62
2023/09/26 03:35:31;;;;;;;52.92;48.42;;;20.20;99.90;;;;;;5071476;28;20115;-62
2023/09/26 03:37:56;;;;;;;49.97;45.63;;;19.70;99.90;;;;;;5070225;28;20055;-62
2023/09/26 03:40:22;;;;;;;52.83;48.45;;;18.70;99.90;;;;;;5071755;28;20075;-62
2023/09/26 03:42:47;;;;;;;53.35;48.72;;;20.00;99.90;;;;;;5070455;28;20037;-62
2023/09/26 03:45:13;;;;;;;54.42;49.65;;;20.00;99.90;;;;;;5071481;28;20387;-62
2023/09/26 03:47:38;;;;;;;55.88;50.88;;;19.00;99.90;;;;;;5071539;28;20407;-62
2023/09/26 03:50:04;;;;;;;56.20;51.20;;;20.10;99.90;;;;;;5069963;28;20502;-62
2023/09/26 03:52:30;;;;;;;52.60;47.90;;;19.70;99.90;;;;;;5071539;28;20044;-62
2023/09/26 03:54:56;;;;;;;53.88;49.20;;;18.70;99.90;;;;;;5071151;28;20046;-62
2023/09/26 03:57:21;;;;;;;55.20;50.40;;;18.70;99.90;;;;;;5071593;28;20044;-61
2023/09/26 03:59:50;;;;;;;54.80;49.63;;;19.90;99.90;;;;;;5071089;28;20581;-61
2023/09/26 04:02:16;;;;;;;55.25;50.30;;;19.20;99.90;;;;;;5070805;28;20117;-62
2023/09/26 04:04:41;;;;;;;54.60;49.80;;;19.00;99.90;;;;;;5070824;28;20040;-62
2023/09/26 04:07:07;;;;;;;52.85;48.33;;;18.70;99.90;;;;;;5070786;28;20498;-62
2023/09/26 04:09:34;;;;;;;59.58;54.15;;;19.10;99.90;;;;;;5070876;28;20047;-62
2023/09/26 04:12:01;;;;;;;59.60;54.33;;;19.00;99.90;;;;;;5070726;28;20045;-62
2023/09/26 04:14:27;;;;;;;56.55;51.88;;;19.70;99.90;;;;;;5070957;28;20040;-61
2023/09/26 04:16:53;;;;;;;61.85;56.25;;;20.20;99.90;;;;;;5071048;28;20127;-61
2023/09/26 04:19:18;;;;;;;56.67;51.65;;;20.10;99.90;;;;;;5070706;28;20110;-61
2023/09/26 04:21:44;;;;;;;57.67;52.30;;;18.70;99.90;;;;;;5070739;28;20036;-62
2023/09/26 04:24:10;;;;;;;55.83;51.13;;;20.20;99.90;;;;;;5071054;28;20134;-65
2023/09/26 04:26:36;;;;;;;58.58;53.38;;;18.80;99.90;;;;;;5070978;28;20462;-65
2023/09/26 04:29:02;;;;;;;57.00;51.85;;;19.80;99.90;;;;;;5070857;28;20133;-65
2023/09/26 04:31:27;;;;;;;59.22;54.03;;;19.30;99.90;;;;;;5070419;28;20142;-65
2023/09/26 04:33:53;;;;;;;58.22;53.03;;;19.10;99.90;;;;;;5070435;28;20048;-64
2023/09/26 04:36:18;;;;;;;61.95;56.05;;;20.00;99.90;;;;;;5070504;28;20036;-65
2023/09/26 04:38:45;;;;;;;59.22;54.22;;;19.80;99.90;;;;;;5068990;28;20040;-65
2023/09/26 04:41:13;;;;;;;59.03;53.85;;;18.80;99.90;;;;;;5070033;28;20401;-65
2023/09/26 04:43:38;;;;;;;55.90;50.85;;;20.00;99.90;;;;;;5070340;28;20044;-65
2023/09/26 04:46:16;;;;;;;60.25;55.15;;;20.00;99.90;;;;;;5069936;28;20119;-64
2023/09/26 04:48:43;;;;;;;57.67;52.67;;;19.00;99.90;;;;;;5069930;28;20054;-65
2023/09/26 04:51:13;;;;;;;59.45;53.88;;;18.70;99.90;;;;;;5070280;28;20044;-65
2023/09/26 04:53:39;;;;;;;56.38;51.47;;;18.70;99.90;;;;;;5068992;28;20041;-64
2023/09/26 04:56:05;;;;;;;61.88;56.60;;;19.90;99.90;;;;;;5069737;28;20047;-66
2023/09/26 04:58:32;;;;;;;58.60;53.72;;;19.40;99.90;;;;;;5069845;28;20504;-66
2023/09/26 05:01:00;;;;;;;60.70;55.38;;;18.80;99.90;;;;;;5069778;28;20075;-65
2023/09/26 05:03:27;;;;;;;60.50;54.75;;;19.00;99.90;;;;;;5068644;28;20072;-64
2023/09/26 05:05:52;;;;;;;58.35;53.05;;;19.20;99.90;;;;;;5069672;28;20056;-65
2023/09/26 05:08:18;;;;;;;61.55;56.13;;;19.70;99.90;;;;;;5070089;28;20052;-64
2023/09/26 05:10:43;;;;;;;56.60;51.83;;;20.10;99.90;;;;;;5069725;28;20548;-65
2023/09/26 05:13:09;;;;;;;58.08;53.08;;;20.10;99.90;;;;;;5069918;28;20041;-65
2023/09/26 05:15:35;;;;;;;58.63;53.42;;;19.70;99.90;;;;;;5069319;28;20047;-64
2023/09/26 05:18:02;;;;;;;60.00;54.78;;;18.60;99.90;;;;;;5068032;28;20052;-65
2023/09/26 05:20:28;;;;;;;62.78;57.25;;;18.60;99.90;;;;;;5069781;28;20094;-64
2023/09/26 05:22:53;;;;;;;63.20;57.63;;;18.60;99.90;;;;;;5069852;28;20450;-65
2023/09/26 05:25:19;;;;;;;63.00;57.50;;;19.60;99.90;;;;;;5069332;28;20126;-65
2023/09/26 05:27:45;;;;;;;66.70;60.70;;;19.10;99.90;;;;;;5069507;28;20044;-65
2023/09/26 05:30:12;;;;;;;64.45;58.58;;;18.60;99.90;;;;;;5069396;28;20040;-65
2023/09/26 05:32:39;;;;;;;62.67;56.90;;;19.30;99.90;;;;;;5069876;28;20488;-65
2023/09/26 05:35:06;;;;;;;61.08;55.90;;;19.80;99.90;;;;;;5069436;28;20051;-61
2023/09/26 05:37:32;;;;;;;60.38;54.97;;;18.50;99.90;;;;;;5068062;28;20118;-61
2023/09/26 05:39:58;;;;;;;60.45;54.97;;;19.80;99.90;;;;;;5069375;28;20079;-61
2023/09/26 05:42:23;;;;;;;61.40;55.90;;;19.30;99.90;;;;;;5069177;28;20154;-60
2023/09/26 05:44:49;;;;;;;62.78;56.70;;;18.50;99.90;;;;;;5067511;28;20106;-62
2023/09/26 05:47:14;;;;;;;60.03;54.83;;;19.10;99.90;;;;;;5068868;28;20120;-61
2023/09/26 05:49:40;;;;;;;60.05;54.78;;;18.60;99.90;;;;;;5068721;28;20474;-60
2023/09/26 05:52:05;;;;;;;60.22;54.72;;;18.60;99.90;;;;;;5069449;28;20123;-61
2023/09/26 05:54:31;;;;;;;59.17;53.45;;;19.80;99.90;;;;;;5069580;28;20048;-61
2023/09/26 05:56:58;;;;;;;58.75;53.45;;;19.80;99.90;;;;;;5067644;28;20052;-60
2023/09/26 06:14:48;;;;;;;61.15;55.22;;;18.60;99.90;;;;;;5046295;28;20568;-61
2023/09/26 06:17:14;;;;;;;64.38;58.38;;;19.90;99.90;;;;;;5047923;28;20045;-61
2023/09/26 06:19:45;;;;;;;59.00;54.00;;;19.70;99.90;;;;;;5051972;28;20044;-61
2023/09/26 06:22:10;;;;;;;59.83;54.53;;;19.30;99.90;;;;;;5055751;28;20054;-61
2023/09/26 06:24:36;;;;;;;59.60;54.10;;;18.90;99.90;;;;;;5062249;28;20036;-61
2023/09/26 06:27:01;;;;;;;62.20;56.35;;;19.10;99.90;;;;;;5061820;28;20414;-61
2023/09/26 06:29:27;;;;;;;58.45;53.15;;;19.80;99.90;;;;;;5062352;28;20461;-61
2023/09/26 06:31:52;;;;;;;59.53;54.33;;;18.90;99.90;;;;;;5062398;28;20445;-61
2023/09/26 06:34:18;;;;;;;57.47;52.40;;;18.80;99.90;;;;;;5066880;28;20048;-62
2023/09/26 06:36:45;;;;;;;57.92;52.67;;;20.10;99.90;;;;;;5065636;28;20131;-61
2023/09/26 06:39:11;;;;;;;59.00;54.05;;;19.30;99.90;;;;;;5055944;28;20032;-62
2023/09/26 06:41:37;;;;;;;59.63;54.38;;;19.60;99.90;;;;;;5063860;28;20041;-62
2023/09/26 06:44:03;;;;;;;60.67;55.53;;;19.00;99.90;;;;;;5064417;28;20076;-67
2023/09/26 06:46:29;;;;;;;60.22;54.63;;;19.90;99.90;;;;;;5061846;28;20064;-67
2023/09/26 06:48:55;;;;;;;59.72;54.55;;;20.30;99.90;;;;;;5066041;28;20052;-68
2023/09/26 06:51:20;;;;;;;60.63;55.38;;;19.30;99.90;;;;;;5060468;28;20049;-67
2023/09/26 06:53:47;;;;;;;61.92;56.25;;;20.30;99.90;;;;;;5058702;28;20453;-67
2023/09/26 06:56:13;;;;;;;59.05;53.83;;;20.50;99.90;;;;;;5055701;28;20474;-67
2023/09/26 06:58:39;;;;;;;62.28;56.88;;;20.50;99.90;;;;;;5058690;28;20083;-67
2023/09/26 07:01:12;;;;;;;61.30;55.80;;;20.60;99.90;;;;;;5062844;28;20429;-68
2023/09/26 07:03:38;;;;;;;58.33;53.35;;;20.60;99.90;;;;;;5062397;28;20047;-67
2023/09/26 07:06:10;;;;;;;58.28;53.38;;;19.80;99.90;;;;;;5057600;28;20032;-66
2023/09/26 07:08:36;;;;;;;60.05;54.25;;;19.70;99.90;;;;;;5056087;28;20550;-64
2023/09/26 07:11:06;;;;;;;60.90;55.50;;;20.40;99.90;;;;;;5057710;28;20055;-64
2023/09/26 07:13:35;;;;;;;60.50;55.10;;;19.60;99.90;;;;;;5064617;28;20119;-64
2023/09/26 07:16:05;;;;;;;58.42;53.17;;;20.30;99.90;;;;;;5062685;28;20391;-64
2023/09/26 07:18:31;;;;;;;59.33;54.33;;;20.60;99.90;;;;;;5062998;28;20040;-64
2023/09/26 07:21:04;;;;;;;57.13;52.45;;;19.70;99.90;;;;;;5059857;28;20107;-64
2023/09/26 07:23:34;;;;;;;59.08;53.75;;;20.70;99.90;;;;;;5063994;28;20458;-64
2023/09/26 07:26:14;;;;;;;56.90;51.97;;;19.90;99.90;;;;;;5062563;28;20594;-64
2023/09/26 07:28:40;;;;;;;56.65;51.53;;;21.30;99.90;;;;;;5054142;28;20052;-64
2023/09/26 07:31:08;;;;;;;55.75;50.80;;;20.30;99.90;;;;;;5058943;28;20040;-64
2023/09/26 07:33:34;;;;;;;54.78;49.75;;;20.40;99.90;;;;;;5061587;28;20041;-64
2023/09/26 07:36:00;;;;;;;53.03;48.05;;;21.70;99.90;;;;;;5062714;28;20409;-64
2023/09/26 07:38:26;;;;;;;50.95;46.28;;;21.50;99.90;;;;;;5066477;28;20054;-64
2023/09/26 07:40:51;;;;;;;55.90;50.90;;;20.90;99.90;;;;;;5059833;28;20486;-64
2023/09/26 07:43:17;;;;;;;49.22;44.72;;;21.70;99.90;;;;;;5057136;28;20390;-64
2023/09/26 07:45:42;;;;;;;48.80;44.35;;;21.20;99.90;;;;;;5056865;28;20044;-65
2023/09/26 07:48:09;;;;;;;46.53;42.13;;;21.40;99.90;;;;;;5060586;28;20048;-64
2023/09/26 07:50:34;;;;;;;45.20;40.90;;;22.20;99.90;;;;;;5061639;28;20088;-64
2023/09/26 07:53:02;;;;;;;47.55;43.38;;;21.60;99.90;;;;;;5064122;28;20125;-64
2023/09/26 07:55:28;;;;;;;48.90;44.53;;;22.20;99.90;;;;;;5065313;28;20131;-65
2023/09/26 07:57:54;;;;;;;61.80;45.33;;;22.40;99.90;;;;;;5065476;28;20123;-65
2023/09/26 08:00:19;;;;;;;48.22;43.92;;;21.40;99.90;;;;;;5063892;28;20147;-65
2023/09/26 08:02:45;;;;;;;46.40;42.20;;;22.30;99.90;;;;;;5066081;28;20041;-64
2023/09/26 08:05:11;;;;;;;46.38;42.28;;;22.40;99.90;;;;;;5065480;28;20056;-64
2023/09/26 08:07:38;;;;;;;45.05;41.08;;;21.60;99.90;;;;;;5061114;28;20055;-64
2023/09/26 08:10:04;;;;;;;46.08;42.20;;;21.60;99.90;;;;;;5061998;28;20096;-65
2023/09/26 08:12:30;;;;;;;44.47;40.33;;;22.10;99.90;;;;;;5058534;28;20118;-65
2023/09/26 08:14:57;;;;;;;46.13;41.55;;;22.70;99.90;;;;;;5065939;28;20049;-65
2023/09/26 08:17:24;;;;;;;41.92;38.33;;;22.20;99.90;;;;;;5067519;28;20044;-65
2023/09/26 08:19:49;;;;;;;36.22;32.85;;;22.30;99.90;;;;;;5065062;28;20140;-65
2023/09/26 08:22:15;;;;;;;32.90;30.15;;;23.40;99.90;;;;;;5065558;28;20115;-65
2023/09/26 08:24:40;;;;;;;27.75;25.35;;;23.30;99.90;;;;;;5067425;28;20056;-68
2023/09/26 08:27:06;;;;;;;27.85;25.27;;;24.10;99.90;;;;;;5064238;28;20043;-67
2023/09/26 08:29:32;;;;;;;26.77;24.42;;;24.40;99.90;;;;;;5066868;28;20119;-68
2023/09/26 08:31:58;;;;;;;23.73;21.40;;;24.80;99.90;;;;;;5068173;28;20709;-68
2023/09/26 08:34:24;;;;;;;23.02;21.02;;;25.10;99.90;;;;;;5067850;28;20419;-63
2023/09/26 08:36:49;;;;;;;21.58;19.58;;;25.30;99.90;;;;;;5066961;28;20040;-64
2023/09/26 08:39:15;;;;;;;25.05;22.67;;;25.20;99.90;;;;;;5069031;28;20064;-62
2023/09/26 08:41:44;;;;;;;23.05;20.95;;;25.20;99.90;;;;;;5066341;28;20043;-61
2023/09/26 08:44:11;;;;;;;22.92;17.77;;;25.40;99.90;;;;;;5066765;28;20051;-62
2023/09/26 08:46:38;;;;;;;20.42;18.42;;;25.50;99.90;;;;;;5065023;28;20514;-63
2023/09/26 08:49:05;;;;;;;23.95;21.90;;;26.20;99.90;;;;;;5062944;28;20061;-64
2023/09/26 08:51:30;;;;;;;23.52;21.25;;;26.00;99.90;;;;;;5067079;28;20048;-62
2023/09/26 08:53:56;;;;;;;24.85;22.33;;;26.00;99.90;;;;;;5064060;28;20037;-63
2023/09/26 08:56:21;;;;;;;27.40;24.50;;;25.90;99.90;;;;;;5066763;28;20044;-62
2023/09/26 08:58:49;;;;;;;23.92;21.83;;;25.90;99.90;;;;;;5066884;28;20048;-63
2023/09/26 09:01:18;;;;;;;24.33;22.10;;;25.70;99.90;;;;;;5060597;28;20039;-62
2023/09/26 09:03:44;;;;;;;24.00;21.80;;;26.00;99.90;;;;;;5062703;28;20041;-62
2023/09/26 09:06:09;;;;;;;26.38;23.73;;;25.90;99.90;;;;;;5063793;28;20733;-63
2023/09/26 09:08:35;;;;;;;26.92;24.40;;;25.70;99.90;;;;;;5068411;28;20036;-63
2023/09/26 09:11:00;;;;;;;26.23;24.02;;;25.50;1.00;;;;;;5056302;28;20049;-63
2023/09/26 09:13:31;;;;;;;27.75;25.05;;;25.30;99.90;;;;;;5059334;28;20045;-62
2023/09/26 09:16:17;;;;;;;24.73;22.52;;;25.10;99.90;;;;;;5065576;28;20357;-63
2023/09/26 09:18:59;;;;;;;29.77;25.52;;;25.20;35.20;;;;;;5061445;28;20055;-63
2023/09/26 09:21:33;;;;;;;27.55;24.65;;;25.10;99.90;;;;;;5064421;28;20087;-62
2023/09/26 09:24:04;;;;;;;25.95;23.27;;;25.40;99.90;;;;;;5063573;28;20100;-62
2023/09/26 09:26:33;;;;;;;22.27;20.38;;;25.30;99.90;;;;;;5067204;28;20044;-62
2023/09/26 09:29:16;;;;;;;23.35;21.20;;;25.30;99.90;;;;;;5061352;28;20102;-62
2023/09/26 09:31:42;;;;;;;26.77;24.33;;;25.10;1.00;;;;;;5064420;28;20040;-62
2023/09/26 09:34:08;;;;;;;24.75;22.38;;;25.30;1.00;;;;;;5065792;28;20484;-62
2023/09/26 09:36:33;;;;;;;26.75;24.17;;;25.20;99.90;;;;;;5066437;28;20040;-62
2023/09/26 09:39:01;;;;;;;22.92;20.80;;;25.20;1.00;;;;;;5062926;28;20032;-63
2023/09/26 09:41:27;;;;;;;21.05;19.15;;;25.50;1.00;;;;;;5062788;28;20117;-62
2023/09/26 09:43:52;;;;;;;19.27;17.65;;;25.70;53.40;;;;;;5066766;28;20044;-61
2023/09/26 09:46:21;;;;;;;23.67;21.33;;;25.80;99.90;;;;;;5060128;28;20403;-63
2023/09/26 09:48:49;;;;;;;23.85;21.33;;;25.80;13.30;;;;;;5059805;28;20135;-63
2023/09/26 09:51:15;;;;;;;22.05;20.25;;;26.10;95.90;;;;;;5061841;28;20052;-62
2023/09/26 09:53:43;;;;;;;26.35;24.02;;;26.10;1.00;;;;;;5067855;28;20043;-62
2023/09/26 09:56:12;;;;;;;26.40;22.67;;;26.10;99.90;;;;;;5064738;28;20199;-64
2023/09/26 09:58:41;;;;;;;26.92;24.63;;;26.00;99.90;;;;;;5065741;28;20063;-61
2023/09/26 10:01:07;;;;;;;31.90;29.10;;;25.90;99.90;;;;;;5065981;28;20064;-61
2023/09/26 10:03:33;;;;;;;28.77;26.15;;;26.00;99.90;;;;;;5066651;28;20115;-61
2023/09/26 10:05:59;;;;;;;30.77;27.75;;;25.90;99.90;;;;;;5064626;28;20040;-62
2023/09/26 10:08:26;;;;;;;28.98;26.50;;;25.70;99.90;;;;;;5065349;28;20059;-62
2023/09/26 10:10:53;;;;;;;27.98;25.40;;;25.70;99.90;;;;;;5063829;28;20044;-62
2023/09/26 10:13:19;;;;;;;27.55;24.95;;;25.70;99.90;;;;;;5061452;28;20052;-61
2023/09/26 10:16:06;;;;;;;27.15;24.58;;;25.70;99.90;;;;;;5061339;28;20037;-63
2023/09/26 10:18:32;;;;;;;;;;;25.50;1.00;;;;;;5063184;28;20074;-62
2023/09/26 10:20:58;;;;;;;25.27;22.88;;;25.60;1.00;;;;;;5064377;28;19920;-62
2023/09/26 10:23:23;;;;;;;26.63;23.90;;;25.70;1.00;;;;;;5064399;28;20670;-62
2023/09/26 10:25:49;;;;;;;26.92;24.23;;;25.90;30.60;;;;;;5063863;28;20041;-62
2023/09/26 10:28:16;;;;;;;25.13;22.42;;;26.00;1.00;;;;;;5063751;28;20052;-62
2023/09/26 10:30:44;;;;;;;22.25;20.15;;;25.90;99.90;;;;;;5061805;28;20055;-62
2023/09/26 10:33:10;;;;;;;24.48;22.17;;;26.00;99.90;;;;;;5061785;28;20493;-61
2023/09/26 10:35:42;;;;;;;21.27;19.38;;;25.90;99.90;;;;;;5063492;28;20052;-62
2023/09/26 10:38:19;;;;;;;23.80;21.50;;;26.00;1.00;;;;;;5060656;28;20132;-63
2023/09/26 10:40:46;;;;;;;23.30;21.10;;;25.90;99.90;;;;;;5059509;28;20048;-61
2023/09/26 10:43:11;;;;;;;22.05;19.55;;;26.00;99.90;;;;;;5062316;28;20055;-62
2023/09/26 10:45:41;;;;;;;20.00;18.17;;;26.00;60.40;;;;;;5061920;28;20036;-63
2023/09/26 10:48:07;;;;;;;18.52;16.90;;;26.10;1.00;;;;;;5063669;28;20041;-61
2023/09/26 10:50:32;;;;;;;19.52;17.58;;;25.90;1.00;;;;;;5064273;28;20101;-66
2023/09/26 10:52:59;;;;;;;16.10;13.70;;;25.90;99.90;;;;;;5059340;28;20400;-67
2023/09/26 10:55:24;;;;;;;18.17;16.42;;;25.90;99.90;;;;;;5056899;28;20055;-66
2023/09/26 10:57:53;;;;;;;22.20;17.38;;;25.90;99.90;;;;;;5066342;28;20044;-66
2023/09/26 11:00:19;;;;;;;19.58;17.55;;;25.80;99.90;;;;;;5055667;28;20040;-67
2023/09/26 11:02:47;;;;;;;17.38;15.68;;;26.00;99.90;;;;;;5064742;28;20037;-66
2023/09/26 11:05:14;;;;;;;19.45;17.60;;;26.40;99.90;;;;;;5061164;28;20139;-65
2023/09/26 11:07:41;;;;;;;16.92;15.13;;;26.80;99.90;;;;;;5055169;28;20056;-65
2023/09/26 11:10:16;;;;;;;18.63;15.32;;;26.60;99.70;;;;;;5059935;28;20044;-65
2023/09/26 11:12:43;;;;;;;19.50;14.85;;;26.60;10.70;;;;;;5063601;28;20055;-62
2023/09/26 11:15:09;;;;;;;18.67;16.80;;;26.50;1.00;;;;;;5066216;28;20040;-65
2023/09/26 11:17:36;;;;;;;16.02;14.32;;;26.40;1.00;;;;;;5065997;28;20396;-65
2023/09/26 11:20:05;;;;;;;17.17;15.50;;;26.50;1.00;;;;;;5066189;28;21634;-64
2023/09/26 11:22:41;;;;;;;18.30;14.88;;;26.50;1.00;;;;;;5063991;28;20093;-65
2023/09/26 11:25:08;;;;;;;15.93;13.98;;;26.70;1.00;;;;;;5055402;28;20116;-64
2023/09/26 11:28:01;;;;;;;15.32;13.73;;;26.50;1.00;;;;;;5062156;28;20091;-65
2023/09/26 11:30:27;;;;;;;15.23;13.70;;;26.60;99.90;;;;;;5050521;28;20064;-64
2023/09/26 11:32:54;;;;;;;16.58;14.88;;;26.60;99.90;;;;;;5060075;28;20044;-64
2023/09/26 11:35:21;;;;;;;16.00;14.23;;;26.70;1.00;;;;;;5059388;28;20044;-64
2023/09/26 11:37:54;;;;;;;17.30;14.65;;;26.70;99.90;;;;;;5054167;28;20036;-65
2023/09/26 11:40:24;;;;;;;16.73;15.13;;;26.70;99.90;;;;;;5055673;28;20049;-64
2023/09/26 11:42:53;;;;;;;22.42;15.75;;;26.80;1.00;;;;;;5057561;28;20032;-64
2023/09/26 11:45:20;;;;;;;19.38;15.73;;;26.80;1.00;;;;;;5057379;28;20044;-65
2023/09/26 11:47:46;;;;;;;19.80;14.82;;;26.70;99.90;;;;;;5057160;28;20051;-64
2023/09/26 11:50:12;;;;;;;18.58;14.55;;;26.70;99.90;;;;;;5064380;28;20060;-64
2023/09/26 11:52:37;;;;;;;21.23;15.35;;;26.60;99.90;;;;;;5061956;28;20502;-64
2023/09/26 11:55:03;;;;;;;21.27;17.45;;;26.60;99.90;;;;;;5067666;28;20052;-64
2023/09/26 11:57:33;;;;;;;22.90;17.77;;;26.60;99.90;;;;;;5064421;28;20048;-64
2023/09/26 11:59:59;;;;;;;20.25;14.80;;;26.50;99.90;;;;;;5064043;28;20132;-64
2023/09/26 12:02:25;;;;;;;21.10;17.10;;;26.50;99.90;;;;;;5068009;28;20131;-64
2023/09/26 12:04:50;;;;;;;24.02;17.35;;;26.50;99.90;;;;;;5066354;28;20028;-64
2023/09/26 12:07:16;;;;;;;19.80;17.52;;;26.60;99.90;;;;;;5063133;28;20552;-64
2023/09/26 12:09:44;;;;;;;17.65;15.77;;;26.70;99.90;;;;;;5061958;28;20051;-64
2023/09/26 12:12:10;;;;;;;13.95;12.45;;;26.80;99.90;;;;;;5064086;28;20037;-64
2023/09/26 12:14:36;;;;;;;14.85;12.77;;;26.80;99.90;;;;;;5064177;28;20124;-64
2023/09/26 12:17:03;;;;;;;14.15;12.75;;;26.80;99.90;;;;;;5065438;28;20687;-64
2023/09/26 12:19:29;;;;;;;15.13;13.50;;;26.70;99.90;;;;;;5065334;28;20044;-64
2023/09/26 12:21:54;;;;;;;17.88;15.25;;;26.60;99.90;;;;;;5066090;28;20082;-64
2023/09/26 12:24:20;;;;;;;15.77;14.10;;;28.40;99.90;;;;;;5070253;28;20033;-67
2023/09/26 12:26:46;;;;;;;14.82;13.52;;;26.60;99.90;;;;;;5065847;28;20114;-67
2023/09/26 12:29:13;;;;;;;15.95;14.45;;;26.60;99.90;;;;;;5066030;28;20086;-67
2023/09/26 12:31:39;;;;;;;19.23;17.52;;;26.50;1.00;;;;;;5063325;28;20054;-66
2023/09/26 12:34:04;;;;;;;18.45;16.80;;;26.50;1.00;;;;;;5061891;28;20434;-67
2023/09/26 12:36:30;;;;;;;18.35;16.55;;;26.60;1.00;;;;;;5065564;28;20090;-67
2023/09/26 12:38:56;;;;;;;17.48;15.75;;;26.60;1.00;;;;;;5061366;28;20071;-67
2023/09/26 12:41:22;;;;;;;19.45;17.45;;;26.70;1.00;;;;;;5062265;28;20060;-67